Time;durP1;ratioP1;P1;durP2;ratioP2;P2;SDS_P1;SDS_P2;PMS_P1;PMS_P2;Temp;Humidity;BMP_temperature;BMP_pressure;BME280_temperature;BME280_humidity;BME280_pressure;Samples;Min_cycle;Max_cycle;Signal;HPM_P1;HPM_P2
2021/10/03 00:02:02;;;;;;;5.33;2.60;;;18.30;99.90;;;;;;5026054;28;20199;-79
2021/10/03 00:04:30;;;;;;;2.80;2.30;;;18.30;99.90;;;;;;5026047;28;20554;-79
2021/10/03 00:06:55;;;;;;;3.73;2.40;;;18.30;99.90;;;;;;5025967;28;20171;-79
2021/10/03 00:09:24;;;;;;;4.23;2.60;;;18.30;99.90;;;;;;5026566;28;20305;-79
2021/10/03 00:11:51;;;;;;;3.93;2.50;;;18.30;99.90;;;;;;5027318;28;20171;-79
2021/10/03 00:14:17;;;;;;;3.77;2.77;;;18.30;99.90;;;;;;5026326;28;20230;-80
2021/10/03 00:16:44;;;;;;;2.73;2.43;;;18.30;99.90;;;;;;5026289;28;20175;-79
2021/10/03 00:19:10;;;;;;;3.50;2.20;;;18.30;99.90;;;;;;5009359;28;20199;-79
2021/10/03 00:21:35;;;;;;;6.00;2.53;;;18.40;99.90;;;;;;5026037;28;20658;-79
2021/10/03 00:24:01;;;;;;;2.87;2.50;;;18.40;99.90;;;;;;5042743;28;20243;-80
2021/10/03 00:26:26;;;;;;;3.63;2.60;;;18.40;99.90;;;;;;5026236;28;20238;-79
2021/10/03 00:28:52;;;;;;;4.00;2.10;;;18.40;99.90;;;;;;5026046;28;20202;-80
2021/10/03 00:31:17;;;;;;;3.73;2.37;;;18.40;99.90;;;;;;5026574;28;20171;-79
2021/10/03 00:33:43;;;;;;;5.57;2.80;;;18.30;99.90;;;;;;5029418;28;20225;-79
2021/10/03 00:36:09;;;;;;;3.43;2.60;;;18.20;99.90;;;;;;5016470;28;20175;-79
2021/10/03 00:38:34;;;;;;;3.60;2.93;;;18.20;99.90;;;;;;5030693;28;20210;-80
2021/10/03 00:41:00;;;;;;;3.63;2.50;;;18.10;99.90;;;;;;5029290;28;20202;-79
2021/10/03 00:43:25;;;;;;;3.30;2.30;;;18.00;99.90;;;;;;5027541;28;20203;-80
2021/10/03 00:45:51;;;;;;;3.73;2.40;;;18.00;99.90;;;;;;5026027;28;20179;-80
2021/10/03 00:48:17;;;;;;;3.97;2.73;;;17.90;99.90;;;;;;5026469;28;20482;-80
2021/10/03 00:50:43;;;;;;;3.67;2.60;;;17.80;99.90;;;;;;5026734;28;20198;-80
2021/10/03 00:53:09;;;;;;;2.70;2.40;;;17.80;99.90;;;;;;5026407;28;20236;-80
2021/10/03 00:55:35;;;;;;;3.63;2.67;;;17.70;99.90;;;;;;5026203;28;20244;-80
2021/10/03 00:58:00;;;;;;;3.23;2.67;;;17.60;99.90;;;;;;5025651;28;20231;-80
2021/10/03 01:00:27;;;;;;;3.07;2.53;;;17.60;99.90;;;;;;5025683;28;20186;-80
2021/10/03 01:02:52;;;;;;;3.30;2.30;;;17.60;99.90;;;;;;5026980;28;20207;-79
2021/10/03 01:05:18;;;;;;;4.00;2.43;;;17.50;99.90;;;;;;5026517;28;20182;-79
2021/10/03 01:07:44;;;;;;;4.17;2.40;;;17.40;99.90;;;;;;5010053;28;20222;-80
2021/10/03 01:10:11;;;;;;;5.37;2.80;;;17.40;99.90;;;;;;5025858;28;20179;-79
2021/10/03 01:12:37;;;;;;;2.83;2.40;;;17.40;99.90;;;;;;5026390;28;20254;-80
2021/10/03 01:15:04;;;;;;;3.70;2.60;;;17.40;99.90;;;;;;5026249;28;20700;-80
2021/10/03 01:17:30;;;;;;;3.97;2.90;;;17.40;99.90;;;;;;5009986;28;20234;-79
2021/10/03 01:19:55;;;;;;;3.30;2.40;;;17.30;99.90;;;;;;5026087;28;20266;-79
2021/10/03 01:22:21;;;;;;;3.83;2.40;;;17.40;99.90;;;;;;5026339;28;20221;-79
2021/10/03 01:24:47;;;;;;;2.90;2.50;;;17.30;99.90;;;;;;5027653;28;20186;-80
2021/10/03 01:27:12;;;;;;;3.73;2.60;;;17.30;99.90;;;;;;5027050;28;20208;-80
2021/10/03 01:29:38;;;;;;;3.20;2.60;;;17.20;99.90;;;;;;5026252;28;20684;-79
2021/10/03 01:32:04;;;;;;;3.63;2.60;;;17.20;99.90;;;;;;5025737;28;20285;-79
2021/10/03 01:34:29;;;;;;;3.40;2.63;;;17.20;99.90;;;;;;5027162;28;20210;-79
2021/10/03 01:36:55;;;;;;;3.33;2.80;;;17.20;99.90;;;;;;5027464;28;20277;-80
2021/10/03 01:39:20;;;;;;;3.43;2.70;;;17.20;99.90;;;;;;5026303;28;20205;-80
2021/10/03 01:41:46;;;;;;;3.63;2.60;;;17.20;99.90;;;;;;5026367;28;20179;-79
2021/10/03 01:44:11;;;;;;;3.70;2.50;;;17.20;99.90;;;;;;5025893;28;20171;-79
2021/10/03 01:46:37;;;;;;;3.20;2.43;;;17.20;99.90;;;;;;5026901;28;20696;-80
2021/10/03 01:49:02;;;;;;;3.03;2.40;;;17.20;99.90;;;;;;5025825;28;20204;-79
2021/10/03 01:51:29;;;;;;;6.50;2.77;;;17.10;99.90;;;;;;5025450;28;20179;-80
2021/10/03 01:53:58;;;;;;;4.53;2.70;;;17.10;99.90;;;;;;5025007;28;20669;-79
2021/10/03 01:56:24;;;;;;;3.20;2.30;;;17.20;99.90;;;;;;5025761;28;20179;-80
2021/10/03 01:58:52;;;;;;;3.07;2.20;;;17.20;99.90;;;;;;5026078;28;20209;-79
2021/10/03 02:01:29;;;;;;;5.03;2.53;;;17.20;99.90;;;;;;5025116;28;20179;-80
2021/10/03 02:03:55;;;;;;;3.40;2.70;;;17.20;99.90;;;;;;5025920;28;20198;-80
2021/10/03 02:06:20;;;;;;;4.43;2.30;;;17.20;99.90;;;;;;5040908;28;20210;-80
2021/10/03 02:08:53;;;;;;;4.13;2.50;;;17.20;99.90;;;;;;5025309;28;20206;-80
2021/10/03 02:11:19;;;;;;;5.40;2.50;;;17.20;99.90;;;;;;5026948;28;20177;-79
2021/10/03 02:13:45;;;;;;;2.47;2.27;;;17.20;99.90;;;;;;5024877;28;20228;-80
2021/10/03 02:16:11;;;;;;;3.20;2.30;;;17.30;99.90;;;;;;5024947;28;20192;-80
2021/10/03 02:18:39;;;;;;;3.73;2.30;;;17.30;99.90;;;;;;5023111;28;20297;-79
2021/10/03 02:21:05;;;;;;;5.00;2.40;;;17.30;99.90;;;;;;5025908;28;20193;-80
2021/10/03 02:23:31;;;;;;;5.87;2.47;;;17.40;99.90;;;;;;5026288;28;20203;-80
2021/10/03 02:25:57;;;;;;;2.30;2.10;;;17.40;99.90;;;;;;5026454;28;20210;-80
2021/10/03 02:28:24;;;;;;;3.20;2.30;;;17.40;99.90;;;;;;5024306;28;20225;-79
2021/10/03 02:30:51;;;;;;;4.40;2.40;;;17.40;99.90;;;;;;5024450;28;20175;-79
2021/10/03 02:33:17;;;;;;;4.60;2.30;;;17.50;99.90;;;;;;5023519;28;20193;-79
2021/10/03 02:35:42;;;;;;;2.87;2.00;;;17.50;99.90;;;;;;5023857;28;20183;-80
2021/10/03 02:38:09;;;;;;;2.60;1.90;;;17.60;99.90;;;;;;5024207;28;20210;-80
2021/10/03 02:40:35;;;;;;;2.80;2.20;;;17.60;99.90;;;;;;5024453;28;20274;-80
2021/10/03 02:43:05;;;;;;;2.97;2.10;;;17.60;99.90;;;;;;5023977;28;20654;-80
2021/10/03 02:45:32;;;;;;;4.97;2.03;;;17.60;99.90;;;;;;5026475;28;20179;-79
2021/10/03 02:47:57;;;;;;;2.37;2.13;;;17.60;99.90;;;;;;5024305;28;20210;-79
2021/10/03 02:50:23;;;;;;;3.33;2.00;;;17.70;99.90;;;;;;5023273;28;20178;-80
2021/10/03 02:52:48;;;;;;;2.77;1.70;;;17.70;99.90;;;;;;5023760;28;20194;-79
2021/10/03 02:55:14;;;;;;;5.73;1.97;;;17.70;99.90;;;;;;5027327;28;20179;-79
2021/10/03 02:57:39;;;;;;;2.33;1.83;;;17.80;99.90;;;;;;5028256;28;20206;-80
2021/10/03 03:00:06;;;;;;;3.07;2.10;;;17.80;99.90;;;;;;5027918;28;20186;-80
2021/10/03 03:02:31;;;;;;;2.47;1.73;;;17.80;99.90;;;;;;5028092;28;20203;-79
2021/10/03 03:04:57;;;;;;;3.07;2.10;;;17.90;99.90;;;;;;5027335;28;20194;-80
2021/10/03 03:07:22;;;;;;;2.53;2.10;;;17.90;99.90;;;;;;5050074;23;20206;-87
2021/10/03 03:09:48;;;;;;;2.33;1.93;;;17.90;99.90;;;;;;5059931;28;20216;-87
2021/10/03 03:12:13;;;;;;;3.87;1.80;;;17.90;99.90;;;;;;5062941;28;20181;-86
2021/10/03 03:14:39;;;;;;;3.20;2.20;;;17.90;99.90;;;;;;5062188;28;20169;-87
2021/10/03 03:17:15;;;;;;;2.37;1.87;;;17.90;99.90;;;;;;5061880;28;20185;-87
2021/10/03 03:19:41;;;;;;;3.07;1.63;;;17.90;99.90;;;;;;5045729;23;20714;-77
2021/10/03 03:22:06;;;;;;;2.33;1.90;;;17.90;99.90;;;;;;5013974;28;20183;-75
2021/10/03 03:24:32;;;;;;;2.83;1.80;;;18.00;99.90;;;;;;5004474;28;20184;-74
2021/10/03 03:26:58;;;;;;;2.13;1.63;;;17.90;99.90;;;;;;4998935;28;20224;-74
2021/10/03 03:29:23;;;;;;;3.37;1.90;;;17.90;99.90;;;;;;4985450;28;20211;-74
2021/10/03 03:31:49;;;;;;;2.27;1.80;;;17.90;99.90;;;;;;4953096;28;20177;-74
2021/10/03 03:34:14;;;;;;;3.70;1.60;;;17.80;99.90;;;;;;4967974;28;20217;-74
2021/10/03 03:36:40;;;;;;;2.23;1.70;;;17.80;99.90;;;;;;4951507;28;20275;-74
2021/10/03 03:39:05;;;;;;;1.93;1.67;;;17.70;99.90;;;;;;4984960;28;20215;-74
2021/10/03 03:41:31;;;;;;;3.37;2.00;;;17.70;99.90;;;;;;4984451;28;20181;-74
2021/10/03 03:43:56;;;;;;;2.70;2.03;;;17.70;99.90;;;;;;4985005;28;20208;-74
2021/10/03 03:46:22;;;;;;;2.20;1.57;;;17.70;99.90;;;;;;4984934;28;20556;-74
2021/10/03 03:48:47;;;;;;;2.97;1.87;;;17.60;99.90;;;;;;4983714;28;20556;-74
2021/10/03 03:51:13;;;;;;;2.30;2.00;;;17.60;99.90;;;;;;4981678;28;20555;-74
2021/10/03 03:53:38;;;;;;;3.80;1.90;;;17.60;99.90;;;;;;4974422;28;20181;-74
2021/10/03 03:56:04;;;;;;;2.17;1.70;;;17.60;99.90;;;;;;4942283;28;20185;-76
2021/10/03 03:58:30;;;;;;;2.57;2.00;;;17.50;99.90;;;;;;4957876;28;20212;-76
2021/10/03 04:00:55;;;;;;;2.73;1.90;;;17.50;99.90;;;;;;4974357;28;20208;-76
2021/10/03 04:03:21;;;;;;;3.60;1.97;;;17.40;99.90;;;;;;4974435;28;20208;-76
2021/10/03 04:05:46;;;;;;;3.27;1.93;;;17.50;99.90;;;;;;4958001;28;20173;-76
2021/10/03 04:08:12;;;;;;;2.90;2.07;;;17.40;99.90;;;;;;4990072;28;20199;-76
2021/10/03 04:10:37;;;;;;;4.43;1.90;;;17.30;99.90;;;;;;4974382;28;20176;-76
2021/10/03 04:13:03;;;;;;;2.37;1.93;;;17.30;99.90;;;;;;4975358;28;20547;-76
2021/10/03 04:15:28;;;;;;;3.67;1.93;;;17.30;99.90;;;;;;4975488;28;20191;-76
2021/10/03 04:17:54;;;;;;;2.33;2.10;;;17.20;99.90;;;;;;4973553;28;20250;-76
2021/10/03 04:20:19;;;;;;;4.43;2.10;;;17.20;99.90;;;;;;4974251;28;20265;-76
2021/10/03 04:22:45;;;;;;;3.60;2.07;;;17.10;99.90;;;;;;4990000;28;20213;-76
2021/10/03 04:25:10;;;;;;;3.27;2.17;;;17.10;99.90;;;;;;4957801;28;20192;-76
2021/10/03 04:27:36;;;;;;;2.57;2.10;;;17.00;99.90;;;;;;4941521;28;20261;-76
2021/10/03 04:30:03;;;;;;;3.93;2.50;;;17.00;99.90;;;;;;4973664;28;20177;-74
2021/10/03 04:32:28;;;;;;;2.27;2.00;;;16.90;99.90;;;;;;4973729;28;20173;-74
2021/10/03 04:34:54;;;;;;;4.30;2.53;;;16.80;99.90;;;;;;4975141;28;20673;-74
2021/10/03 04:37:19;;;;;;;4.20;2.63;;;16.80;99.90;;;;;;4973974;28;20653;-74
2021/10/03 04:39:45;;;;;;;3.13;2.50;;;16.70;99.90;;;;;;4957388;28;20696;-74
2021/10/03 04:42:11;;;;;;;3.17;2.47;;;16.60;99.90;;;;;;4957558;28;20731;-74
2021/10/03 04:44:36;;;;;;;4.27;2.70;;;16.60;99.90;;;;;;4973538;28;20203;-74
2021/10/03 04:47:02;;;;;;;3.07;2.70;;;16.60;99.90;;;;;;4973502;28;20641;-75
2021/10/03 04:49:27;;;;;;;4.73;2.83;;;16.50;99.90;;;;;;4941272;28;20545;-74
2021/10/03 04:51:53;;;;;;;5.57;2.90;;;16.50;99.90;;;;;;4974648;28;20181;-74
2021/10/03 04:54:18;;;;;;;5.27;3.43;;;16.60;99.90;;;;;;4974549;28;20268;-74
2021/10/03 04:56:44;;;;;;;4.87;3.23;;;16.60;99.90;;;;;;4973372;28;20220;-74
2021/10/03 04:59:10;;;;;;;6.73;3.23;;;16.50;99.90;;;;;;4973310;28;20552;-74
2021/10/03 05:01:35;;;;;;;4.43;3.13;;;16.40;99.90;;;;;;4973353;28;20578;-74
2021/10/03 05:04:01;;;;;;;6.73;3.13;;;16.40;99.90;;;;;;4989155;28;20299;-74
2021/10/03 05:06:26;;;;;;;3.67;3.20;;;16.40;99.90;;;;;;4941014;28;20260;-74
2021/10/03 05:08:53;;;;;;;4.27;3.13;;;16.40;99.90;;;;;;4957083;28;20216;-74
2021/10/03 05:11:18;;;;;;;5.97;3.50;;;16.40;99.90;;;;;;4973498;28;20166;-74
2021/10/03 05:13:44;;;;;;;4.40;3.80;;;16.30;99.90;;;;;;4973048;28;20177;-74
2021/10/03 05:16:09;;;;;;;5.13;3.83;;;16.30;99.90;;;;;;4972281;28;20185;-74
2021/10/03 05:18:37;;;;;;;6.20;3.80;;;16.30;99.90;;;;;;4972768;28;20212;-74
2021/10/03 05:21:04;;;;;;;9.93;3.90;;;16.30;99.90;;;;;;4957112;28;20173;-74
2021/10/03 05:23:29;;;;;;;5.20;3.73;;;16.30;99.90;;;;;;4956857;28;20216;-74
2021/10/03 05:25:55;;;;;;;6.23;4.07;;;16.40;99.90;;;;;;4972810;28;20184;-75
2021/10/03 05:28:21;;;;;;;4.40;4.00;;;16.40;99.90;;;;;;4956353;28;20196;-74
2021/10/03 05:30:46;;;;;;;6.27;3.90;;;16.40;99.90;;;;;;4972725;28;20271;-74
2021/10/03 05:33:12;;;;;;;5.10;4.23;;;16.40;99.90;;;;;;4956523;28;20188;-74
2021/10/03 05:35:37;;;;;;;5.67;4.37;;;16.40;99.90;;;;;;4956476;28;20220;-74
2021/10/03 05:38:03;;;;;;;6.97;4.00;;;16.40;99.90;;;;;;4972213;28;20220;-74
2021/10/03 05:40:29;;;;;;;6.33;3.90;;;16.40;99.90;;;;;;4956475;28;20204;-74
2021/10/03 05:42:55;;;;;;;5.63;3.87;;;16.40;99.90;;;;;;4956401;28;20271;-74
2021/10/03 05:45:20;;;;;;;4.93;4.10;;;16.40;99.90;;;;;;4973609;28;20648;-74
2021/10/03 05:47:46;;;;;;;6.57;4.30;;;16.40;99.90;;;;;;4972029;28;20193;-74
2021/10/03 05:50:11;;;;;;;6.53;4.00;;;16.40;99.90;;;;;;4956360;28;20184;-77
2021/10/03 05:52:38;;;;;;;5.50;4.50;;;16.40;99.90;;;;;;4972403;28;20177;-74
2021/10/03 05:55:04;;;;;;;5.57;4.57;;;16.40;99.90;;;;;;4973727;28;20175;-74
2021/10/03 05:57:29;;;;;;;5.63;4.33;;;16.40;99.90;;;;;;4972119;28;20185;-74
2021/10/03 05:59:55;;;;;;;6.10;3.90;;;16.40;99.90;;;;;;4971980;28;20176;-73
2021/10/03 06:02:20;;;;;;;4.97;4.20;;;16.40;99.90;;;;;;4956176;28;20204;-74
2021/10/03 06:04:46;;;;;;;8.07;4.90;;;16.40;99.90;;;;;;4956376;28;20169;-75
2021/10/03 06:07:11;;;;;;;6.33;4.57;;;16.50;99.90;;;;;;4972172;28;20671;-74
2021/10/03 06:09:37;;;;;;;5.77;4.50;;;16.50;99.90;;;;;;4986792;28;20195;-74
2021/10/03 06:12:04;;;;;;;6.47;4.67;;;16.50;99.90;;;;;;4998328;28;20198;-74
2021/10/03 06:14:30;;;;;;;5.80;4.63;;;16.50;99.90;;;;;;5000453;28;20184;-74
2021/10/03 06:16:55;;;;;;;7.43;4.83;;;16.40;99.90;;;;;;5006550;28;20777;-74
2021/10/03 06:19:21;;;;;;;7.47;5.10;;;16.40;99.90;;;;;;4992184;28;20221;-74
2021/10/03 06:21:46;;;;;;;7.37;4.97;;;16.40;99.90;;;;;;5010605;28;20258;-74
2021/10/03 06:24:12;;;;;;;8.37;5.03;;;16.40;99.90;;;;;;4986274;28;20274;-74
2021/10/03 06:26:38;;;;;;;7.00;5.10;;;16.50;99.90;;;;;;5003154;28;20230;-74
2021/10/03 06:29:04;;;;;;;6.47;4.80;;;16.50;99.90;;;;;;4998835;28;20275;-74
2021/10/03 06:31:30;;;;;;;7.73;5.13;;;16.60;99.90;;;;;;5011685;28;20183;-74
2021/10/03 06:33:55;;;;;;;7.30;5.43;;;16.60;99.90;;;;;;4984725;28;20266;-74
2021/10/03 06:36:21;;;;;;;6.73;5.30;;;16.60;99.90;;;;;;5002219;28;20267;-74
2021/10/03 06:38:47;;;;;;;7.57;5.60;;;16.60;99.90;;;;;;5001367;28;20211;-74
2021/10/03 06:41:12;;;;;;;6.97;5.43;;;16.60;99.90;;;;;;4982501;28;20195;-74
2021/10/03 06:43:40;;;;;;;9.57;5.43;;;16.60;99.90;;;;;;5010918;28;20200;-74
2021/10/03 06:46:06;;;;;;;8.03;5.13;;;16.60;99.90;;;;;;5002909;28;20171;-73
2021/10/03 06:48:32;;;;;;;7.33;5.17;;;16.60;99.90;;;;;;5013866;28;20556;-74
2021/10/03 06:50:58;;;;;;;6.77;5.17;;;16.70;99.90;;;;;;4999934;28;20180;-75
2021/10/03 06:53:23;;;;;;;8.37;5.60;;;16.80;99.90;;;;;;4996412;28;20186;-73
2021/10/03 06:55:49;;;;;;;6.87;5.30;;;16.70;99.90;;;;;;5008913;28;20184;-74
2021/10/03 06:58:14;;;;;;;6.00;5.40;;;16.80;99.90;;;;;;4994138;28;20243;-73
2021/10/03 07:00:40;;;;;;;8.93;5.90;;;16.80;99.90;;;;;;5006519;28;20191;-75
2021/10/03 07:03:05;;;;;;;6.37;5.70;;;16.80;99.90;;;;;;4995229;28;20205;-75
2021/10/03 07:05:31;;;;;;;9.70;5.53;;;16.80;99.90;;;;;;5006489;28;20187;-74
2021/10/03 07:07:57;;;;;;;8.27;5.97;;;16.70;99.90;;;;;;4993545;28;20204;-74
2021/10/03 07:10:22;;;;;;;9.43;5.50;;;16.70;99.90;;;;;;4994370;28;20260;-74
2021/10/03 07:12:48;;;;;;;8.67;5.43;;;16.70;99.90;;;;;;4979210;28;20180;-75
2021/10/03 07:15:13;;;;;;;6.90;6.00;;;16.70;99.90;;;;;;4978383;28;20234;-75
2021/10/03 07:17:39;;;;;;;8.20;5.90;;;16.80;99.90;;;;;;4962413;28;20212;-75
2021/10/03 07:20:05;;;;;;;7.63;5.80;;;16.70;99.90;;;;;;4977879;28;20188;-75
2021/10/03 07:22:31;;;;;;;8.27;6.53;;;16.70;99.90;;;;;;4988645;28;20216;-76
2021/10/03 07:24:56;;;;;;;8.20;5.67;;;16.70;99.90;;;;;;4999437;28;20179;-74
2021/10/03 07:27:22;;;;;;;10.30;6.50;;;16.70;99.90;;;;;;4995309;28;20258;-75
2021/10/03 07:29:47;;;;;;;10.13;6.10;;;16.70;99.90;;;;;;4992070;28;20191;-75
2021/10/03 07:32:13;;;;;;;8.87;6.10;;;16.70;99.90;;;;;;4993921;28;20195;-74
2021/10/03 07:34:38;;;;;;;9.23;6.20;;;16.70;99.90;;;;;;4993969;28;20184;-75
2021/10/03 07:37:04;;;;;;;8.90;5.87;;;16.80;99.90;;;;;;4992789;28;20176;-75
2021/10/03 07:39:30;;;;;;;7.80;5.87;;;16.70;99.90;;;;;;4990200;28;20287;-75
2021/10/03 07:41:56;;;;;;;9.90;6.43;;;16.80;99.90;;;;;;4974413;28;20640;-75
2021/10/03 07:44:22;;;;;;;9.20;6.47;;;16.70;99.90;;;;;;4975441;28;20208;-75
2021/10/03 07:46:47;;;;;;;7.20;5.93;;;16.80;99.90;;;;;;4974361;28;20177;-76
2021/10/03 07:49:13;;;;;;;8.70;6.27;;;16.80;99.90;;;;;;5007820;28;20207;-75
2021/10/03 07:51:39;;;;;;;9.30;6.30;;;16.80;99.90;;;;;;5013340;28;20189;-75
2021/10/03 07:54:05;;;;;;;6.70;5.87;;;16.80;99.90;;;;;;5013169;28;20179;-75
2021/10/03 07:56:30;;;;;;;9.10;5.87;;;16.80;99.90;;;;;;5013110;28;20176;-75
2021/10/03 07:58:56;;;;;;;7.43;5.83;;;16.90;99.90;;;;;;5012899;28;20210;-75
2021/10/03 08:01:21;;;;;;;7.53;6.00;;;16.90;99.90;;;;;;5007182;28;20176;-75
2021/10/03 08:03:47;;;;;;;9.50;5.93;;;16.90;99.90;;;;;;4999096;28;20211;-75
2021/10/03 08:06:13;;;;;;;7.47;5.60;;;17.00;99.90;;;;;;5005853;28;20551;-75
2021/10/03 08:08:38;;;;;;;7.50;5.50;;;17.20;99.90;;;;;;4967527;28;20193;-75
2021/10/03 08:11:04;;;;;;;6.30;5.43;;;17.10;99.90;;;;;;4966926;28;20181;-74
2021/10/03 08:13:29;;;;;;;6.63;5.50;;;17.20;99.90;;;;;;4998260;28;20203;-77
2021/10/03 08:15:55;;;;;;;8.20;5.37;;;17.30;99.90;;;;;;4993120;28;20184;-74
2021/10/03 08:18:20;;;;;;;7.13;5.43;;;17.30;99.90;;;;;;5010209;28;20215;-74
2021/10/03 08:20:47;;;;;;;8.07;5.30;;;17.30;99.90;;;;;;4994708;28;20228;-74
2021/10/03 08:23:13;;;;;;;6.37;5.37;;;17.30;99.90;;;;;;4999829;28;20215;-74
2021/10/03 08:25:39;;;;;;;7.87;4.80;;;17.30;99.90;;;;;;4999122;28;20253;-74
2021/10/03 08:28:04;;;;;;;7.97;4.77;;;17.40;99.90;;;;;;4992978;28;20200;-75
2021/10/03 08:30:30;;;;;;;7.73;4.90;;;17.40;99.90;;;;;;4994164;28;20175;-74
2021/10/03 08:32:55;;;;;;;8.07;4.97;;;17.40;99.90;;;;;;4994388;28;20271;-74
2021/10/03 08:35:21;;;;;;;7.03;4.77;;;17.40;99.90;;;;;;4989881;28;20191;-73
2021/10/03 08:37:47;;;;;;;6.30;4.70;;;17.50;99.90;;;;;;4994726;28;20287;-74
2021/10/03 08:40:12;;;;;;;7.60;4.73;;;17.50;99.90;;;;;;4994028;28;20268;-74
2021/10/03 08:42:38;;;;;;;6.30;5.00;;;17.50;99.90;;;;;;5004793;28;20222;-75
2021/10/03 08:45:04;;;;;;;6.60;4.70;;;17.50;99.90;;;;;;4961085;28;20227;-75
2021/10/03 08:47:30;;;;;;;7.57;4.90;;;17.50;99.90;;;;;;4976578;28;20184;-75
2021/10/03 08:49:57;;;;;;;5.70;4.27;;;17.40;99.90;;;;;;5000168;28;20165;-76
2021/10/03 08:52:23;;;;;;;7.17;4.80;;;17.40;99.90;;;;;;4993399;28;20194;-74
2021/10/03 08:54:48;;;;;;;6.80;5.07;;;17.40;99.90;;;;;;4974711;28;20229;-74
2021/10/03 08:57:14;;;;;;;7.83;4.37;;;17.50;99.90;;;;;;4977308;28;20555;-76
2021/10/03 09:00:08;;;;;;;6.80;4.90;;;17.50;99.90;;;;;;4992307;28;20614;-74
2021/10/03 09:02:53;;;;;;;6.87;4.50;;;17.50;99.90;;;;;;4983377;28;20296;-76
2021/10/03 09:05:19;;;;;;;6.03;4.30;;;17.50;99.90;;;;;;4975983;28;20175;-74
2021/10/03 09:08:04;;;;;;;5.10;4.60;;;17.50;99.90;;;;;;4991709;28;20199;-74
2021/10/03 09:11:00;;;;;;;5.80;4.60;;;17.50;99.90;;;;;;4991901;28;20671;-74
2021/10/03 09:13:32;;;;;;;5.73;4.63;;;17.50;99.90;;;;;;4992272;28;20167;-78
2021/10/03 09:16:16;;;;;;;5.07;4.17;;;17.50;99.90;;;;;;4995178;28;20259;-74
2021/10/03 09:18:44;;;;;;;5.87;4.63;;;17.50;99.90;;;;;;4992910;28;20806;-75
2021/10/03 09:21:28;;;;;;;5.13;4.20;;;17.50;99.90;;;;;;5043459;22;20223;-79
2021/10/03 09:24:11;;;;;;;7.23;4.90;;;17.50;99.90;;;;;;5050574;28;20199;-79
2021/10/03 09:27:03;;;;;;;7.93;4.77;;;17.50;99.90;;;;;;5060889;28;20213;-82
2021/10/03 09:29:32;;;;;;;6.30;4.80;;;17.70;99.90;;;;;;5022172;28;20174;-81
2021/10/03 09:32:14;;;;;;;6.43;4.53;;;17.60;99.90;;;;;;5015101;28;20202;-78
2021/10/03 09:34:47;;;;;;;7.20;4.43;;;17.70;99.90;;;;;;5017398;28;20182;-79
2021/10/03 09:37:29;;;;;;;7.10;4.63;;;17.70;99.90;;;;;;5021224;28;20195;-80
2021/10/03 09:40:22;;;;;;;6.20;4.87;;;17.70;99.90;;;;;;5018518;28;20656;-79
2021/10/03 09:43:03;;;;;;;5.60;4.27;;;17.70;99.90;;;;;;5013224;28;20210;-79
2021/10/03 09:45:30;;;;;;;6.67;4.33;;;17.70;99.90;;;;;;5032629;28;20166;-81
2021/10/03 09:48:05;;;;;;;5.47;4.10;;;17.70;99.90;;;;;;5031121;28;20190;-82
2021/10/03 09:50:31;;;;;;;5.23;4.60;;;17.60;99.90;;;;;;5032381;28;20155;-82
2021/10/03 09:52:57;;;;;;;6.93;5.07;;;17.70;99.90;;;;;;5014580;28;20183;-82
2021/10/03 09:55:25;;;;;;;6.63;4.90;;;17.60;99.90;;;;;;5034560;28;20265;-79
2021/10/03 09:57:55;;;;;;;6.57;4.60;;;17.60;99.90;;;;;;5034584;28;20185;-77
2021/10/03 10:00:23;;;;;;;7.53;4.87;;;17.60;99.90;;;;;;5016639;28;20177;-78
2021/10/03 10:02:48;;;;;;;6.03;4.60;;;17.60;99.90;;;;;;5016172;28;20194;-78
2021/10/03 10:05:14;;;;;;;7.30;4.73;;;17.60;99.90;;;;;;5031266;28;20221;-77
2021/10/03 10:07:40;;;;;;;7.30;4.83;;;17.60;99.90;;;;;;5014412;28;20205;-78
2021/10/03 10:10:06;;;;;;;6.00;4.97;;;17.60;99.90;;;;;;5031410;28;20262;-79
2021/10/03 10:12:34;;;;;;;6.70;4.50;;;17.60;99.90;;;;;;5031881;28;20197;-79
2021/10/03 10:15:22;;;;;;;6.50;4.03;;;17.60;99.90;;;;;;5026762;28;20191;-82
2021/10/03 10:17:48;;;;;;;7.03;4.50;;;17.70;99.90;;;;;;5026426;28;20191;-81
2021/10/03 10:20:17;;;;;;;6.63;4.73;;;17.70;99.90;;;;;;5014838;28;20193;-81
2021/10/03 10:23:13;;;;;;;6.30;4.23;;;17.70;99.90;;;;;;5024759;28;20203;-83
2021/10/03 10:25:51;;;;;;;6.13;4.70;;;17.70;99.90;;;;;;5027032;28;20184;-83
2021/10/03 10:28:24;;;;;;;6.77;4.10;;;17.70;99.90;;;;;;5032727;28;20202;-81
2021/10/03 10:31:19;;;;;;;7.83;4.10;;;17.80;99.90;;;;;;5018825;28;20218;-83
2021/10/03 10:33:51;;;;;;;5.80;4.20;;;17.80;99.90;;;;;;5025393;28;20176;-83
2021/10/03 10:36:29;;;;;;;6.20;4.97;;;17.90;99.90;;;;;;5034895;28;20225;-83
2021/10/03 10:39:08;;;;;;;6.17;4.80;;;17.90;99.90;;;;;;5013380;28;20171;-82
2021/10/03 10:41:34;;;;;;;5.67;4.27;;;17.90;99.90;;;;;;5035146;28;20214;-83
2021/10/03 10:44:00;;;;;;;6.00;4.50;;;17.90;99.90;;;;;;5036941;28;20191;-86
2021/10/03 10:46:45;;;;;;;6.60;4.50;;;17.90;99.90;;;;;;5020358;28;20211;-84
2021/10/03 10:49:28;;;;;;;5.67;4.83;;;18.00;99.90;;;;;;5015536;28;20190;-84
2021/10/03 10:52:22;;;;;;;6.67;4.40;;;18.00;99.90;;;;;;5022874;28;20191;-82
2021/10/03 10:55:04;;;;;;;5.00;4.20;;;18.10;99.90;;;;;;5027915;28;20195;-83
2021/10/03 10:57:31;;;;;;;4.83;4.27;;;18.20;99.90;;;;;;5045455;28;20251;-85
2021/10/03 11:00:16;;;;;;;6.23;4.27;;;18.30;99.90;;;;;;5015724;28;20174;-82
2021/10/03 11:02:51;;;;;;;6.97;4.50;;;18.30;99.90;;;;;;5008190;28;20202;-80
2021/10/03 11:05:43;;;;;;;6.20;4.07;;;18.40;99.90;;;;;;5008792;28;20183;-83
2021/10/03 11:08:08;;;;;;;5.40;4.00;;;18.40;99.90;;;;;;5034989;28;20182;-82
2021/10/03 11:10:58;;;;;;;5.70;3.90;;;18.40;99.90;;;;;;5037367;28;20238;-84
2021/10/03 11:13:48;;;;;;;5.50;4.13;;;18.40;99.90;;;;;;5035785;28;20195;-79
2021/10/03 11:17:00;;;;;;;4.83;3.77;;;18.40;99.90;;;;;;5030698;28;20201;-80
2021/10/03 11:19:41;;;;;;;6.07;4.13;;;18.40;99.90;;;;;;5031518;28;20167;-80
2021/10/03 11:22:12;;;;;;;4.20;3.80;;;18.50;99.90;;;;;;5036377;28;20214;-80
2021/10/03 11:24:42;;;;;;;5.63;4.57;;;18.60;99.90;;;;;;5025782;28;20182;-80
2021/10/03 11:27:13;;;;;;;6.73;4.57;;;18.60;99.90;;;;;;5025568;28;20167;-79
2021/10/03 11:29:47;;;;;;;7.73;4.90;;;18.50;99.90;;;;;;5021090;28;20175;-79
2021/10/03 11:32:14;;;;;;;7.80;4.43;;;18.60;99.90;;;;;;5010034;28;20604;-80
2021/10/03 11:34:41;;;;;;;6.93;3.97;;;18.60;99.90;;;;;;5018828;28;20538;-80
2021/10/03 11:37:52;;;;;;;4.87;4.37;;;18.60;99.90;;;;;;5051331;28;20172;-81
2021/10/03 11:43:52;;;;;;;4.53;4.07;;;18.40;99.90;;;;;;4987829;28;20239;-83
2021/10/03 11:47:14;;;;;;;6.67;4.37;;;18.40;99.90;;;;;;4964682;28;20169;-81
2021/10/03 11:49:52;;;;;;;4.90;4.20;;;18.30;99.90;;;;;;4966743;28;20671;-82
2021/10/03 11:57:00;;;;;;;5.53;3.97;;;18.40;99.90;;;;;;4959963;29;20201;-82
2021/10/03 11:59:48;;;;;;;6.33;3.70;;;18.40;99.90;;;;;;4957175;29;20195;-83
2021/10/03 12:22:29;;;;;;;4.93;3.60;;;18.40;99.90;;;;;;5033006;28;20257;-83
2021/10/03 12:29:04;;;;;;;4.97;4.00;;;18.40;99.90;;;;;;5005453;28;20281;-82
2021/10/03 12:34:57;;;;;;;6.23;4.77;;;18.40;99.90;;;;;;4998855;28;20248;-82
2021/10/03 12:37:25;;;;;;;5.87;4.00;;;18.40;99.90;;;;;;4999753;28;20214;-84
2021/10/03 12:39:53;;;;;;;5.67;4.37;;;18.40;99.90;;;;;;4976775;28;20187;-84
2021/10/03 12:42:23;;;;;;;6.40;4.20;;;18.40;99.90;;;;;;5024630;28;20200;-82
2021/10/03 12:44:49;;;;;;;4.97;4.13;;;18.40;99.90;;;;;;5028034;28;20164;-84
2021/10/03 12:47:15;;;;;;;4.90;4.00;;;18.40;99.90;;;;;;5018171;28;20176;-83
2021/10/03 12:49:41;;;;;;;4.47;4.07;;;18.30;99.90;;;;;;4997825;28;20180;-77
2021/10/03 12:52:08;;;;;;;5.57;4.03;;;18.30;99.90;;;;;;5013589;28;20682;-82
2021/10/03 12:54:33;;;;;;;5.73;4.20;;;18.30;99.90;;;;;;5008134;28;20179;-82
2021/10/03 12:57:00;;;;;;;7.03;4.70;;;18.40;99.90;;;;;;5019004;28;20190;-78
2021/10/03 12:59:26;;;;;;;5.03;3.90;;;18.40;99.90;;;;;;5032924;28;20171;-79
2021/10/03 13:01:52;;;;;;;5.53;4.00;;;18.50;99.90;;;;;;5018598;28;20219;-79
2021/10/03 13:04:17;;;;;;;5.20;4.30;;;18.50;99.90;;;;;;5018382;28;20203;-77
2021/10/03 13:06:43;;;;;;;4.57;4.10;;;18.60;99.90;;;;;;5023630;28;20249;-78
2021/10/03 13:09:08;;;;;;;4.70;4.10;;;18.60;99.90;;;;;;5005390;28;20177;-77
2021/10/03 13:11:34;;;;;;;6.37;4.20;;;18.60;99.90;;;;;;4994218;28;20196;-78
2021/10/03 13:13:59;;;;;;;4.40;3.80;;;18.70;99.90;;;;;;4993398;28;20184;-80
2021/10/03 13:16:25;;;;;;;6.77;4.00;;;18.70;99.90;;;;;;4994469;28;20226;-80
2021/10/03 13:18:50;;;;;;;5.83;4.10;;;18.70;99.90;;;;;;4993772;28;20185;-80
2021/10/03 13:21:16;;;;;;;4.90;3.87;;;18.70;99.90;;;;;;5010939;28;20244;-80
2021/10/03 13:23:42;;;;;;;4.87;4.20;;;18.80;99.90;;;;;;4981940;28;20191;-81
2021/10/03 13:26:07;;;;;;;5.87;4.00;;;18.80;99.90;;;;;;5033876;28;20206;-77
2021/10/03 13:28:33;;;;;;;6.47;4.43;;;18.80;99.90;;;;;;4999450;28;20179;-77
2021/10/03 13:31:00;;;;;;;5.03;4.20;;;18.90;99.90;;;;;;5012677;28;20212;-78